Time;durP1;ratioP1;P1;durP2;ratioP2;P2;SDS_P1;SDS_P2;PMS_P1;PMS_P2;Temp;Humidity;BMP_temperature;BMP_pressure;BME280_temperature;BME280_humidity;BME280_pressure;Samples;Min_cycle;Max_cycle;Signal;HPM_P1;HPM_P2
2021/07/12 00:00:13;;;;;;;8.35;7.53;;;21.20;96.50;;;;;;5051784;28;20088;-60
2021/07/12 00:02:39;;;;;;;9.02;8.25;;;21.20;96.60;;;;;;5050852;28;20049;-60
2021/07/12 00:05:06;;;;;;;11.35;8.57;;;21.20;96.60;;;;;;5051625;28;20041;-61
2021/07/12 00:07:32;;;;;;;9.57;8.45;;;21.20;96.60;;;;;;5051408;28;20036;-60
2021/07/12 00:09:58;;;;;;;8.63;7.80;;;21.20;96.70;;;;;;5052470;28;20044;-60
2021/07/12 00:12:23;;;;;;;9.10;8.23;;;21.20;96.60;;;;;;5051468;28;20041;-60
2021/07/12 00:14:49;;;;;;;11.25;7.22;;;21.00;96.50;;;;;;5051635;28;20079;-61
2021/07/12 00:17:15;;;;;;;10.18;7.70;;;20.90;96.70;;;;;;5051227;28;20051;-61
2021/07/12 00:19:40;;;;;;;9.02;7.60;;;20.80;97.00;;;;;;5051630;28;20041;-61
2021/07/12 00:22:06;;;;;;;11.23;8.07;;;20.80;97.20;;;;;;5048412;28;20064;-60
2021/07/12 00:24:31;;;;;;;30.92;8.63;;;20.70;97.20;;;;;;5051789;28;20041;-61
2021/07/12 00:26:57;;;;;;;9.68;8.30;;;20.60;97.40;;;;;;5050850;28;20041;-61
2021/07/12 00:29:23;;;;;;;9.45;8.25;;;20.60;97.40;;;;;;5050923;28;20675;-61
2021/07/12 00:31:48;;;;;;;12.80;7.50;;;20.60;97.40;;;;;;5050142;28;20143;-61
2021/07/12 00:34:14;;;;;;;8.80;7.88;;;20.70;97.40;;;;;;5050829;28;20507;-61
2021/07/12 00:36:39;;;;;;;10.55;7.85;;;20.70;97.40;;;;;;5051033;28;20424;-60
2021/07/12 00:39:06;;;;;;;11.68;8.02;;;20.70;97.40;;;;;;5045224;28;20040;-61
2021/07/12 00:41:31;;;;;;;9.77;8.02;;;20.80;97.30;;;;;;5049479;28;20719;-61
2021/07/12 00:43:57;;;;;;;12.65;7.50;;;20.80;97.20;;;;;;5055155;28;20123;-60
2021/07/12 00:46:22;;;;;;;12.30;7.10;;;20.80;97.00;;;;;;5054485;28;20036;-61
2021/07/12 00:48:48;;;;;;;9.85;7.15;;;20.80;96.90;;;;;;5053983;28;20045;-60
2021/07/12 00:51:14;;;;;;;10.50;7.47;;;20.80;96.90;;;;;;5053203;28;20413;-62
2021/07/12 00:53:40;;;;;;;9.57;7.53;;;20.80;96.80;;;;;;5054875;28;20033;-61
2021/07/12 00:56:08;;;;;;;13.00;7.72;;;20.90;96.80;;;;;;5054516;28;20037;-59
2021/07/12 00:58:33;;;;;;;10.82;6.93;;;21.00;96.70;;;;;;5054535;28;20053;-60
2021/07/12 01:01:02;;;;;;;12.07;7.18;;;20.90;96.60;;;;;;5054485;28;20044;-60
2021/07/12 01:03:28;;;;;;;9.43;6.68;;;21.00;96.60;;;;;;5054797;28;20048;-62
2021/07/12 01:05:55;;;;;;;9.80;6.45;;;20.90;96.50;;;;;;5054226;28;20036;-60
2021/07/12 01:08:20;;;;;;;12.70;7.60;;;20.90;96.60;;;;;;5054689;28;20041;-60
2021/07/12 01:11:02;;;;;;;11.57;6.85;;;20.90;96.60;;;;;;5052976;28;20044;-60
2021/07/12 01:13:40;;;;;;;8.30;6.65;;;20.90;96.50;;;;;;5049806;28;20033;-60
2021/07/12 01:16:24;;;;;;;10.10;6.40;;;20.90;96.60;;;;;;5054216;28;20029;-60
2021/07/12 01:18:53;;;;;;;7.13;6.28;;;20.90;96.60;;;;;;5054208;28;20025;-60
2021/07/12 01:21:27;;;;;;;11.25;6.60;;;20.90;96.70;;;;;;5051337;28;20049;-60
2021/07/12 01:24:27;;;;;;;13.07;6.85;;;20.90;96.60;;;;;;5054298;28;20511;-60
2021/07/12 01:27:25;;;;;;;10.52;6.85;;;20.90;96.60;;;;;;5050634;28;20041;-60
2021/07/12 01:30:21;;;;;;;11.70;6.88;;;20.80;96.60;;;;;;5041896;28;20425;-60
2021/07/12 01:32:56;;;;;;;10.70;6.75;;;20.80;96.70;;;;;;5054301;28;20037;-60
2021/07/12 01:35:39;;;;;;;7.60;6.90;;;20.80;96.90;;;;;;5042138;28;20031;-60
2021/07/12 01:38:27;;;;;;;8.50;7.15;;;20.80;96.90;;;;;;5054359;28;20550;-60
2021/07/12 01:41:16;;;;;;;9.77;6.63;;;20.70;96.90;;;;;;5049145;28;20037;-59
2021/07/12 01:43:45;;;;;;;10.60;6.70;;;20.80;96.90;;;;;;5037319;28;20037;-60
2021/07/12 01:46:26;;;;;;;9.50;8.02;;;20.80;96.90;;;;;;5053301;28;20049;-60
2021/07/12 01:49:12;;;;;;;9.27;7.18;;;20.90;96.80;;;;;;5053505;28;20511;-60
2021/07/12 01:51:59;;;;;;;9.05;7.03;;;20.90;96.70;;;;;;5050602;28;20075;-60
2021/07/12 01:54:33;;;;;;;11.57;6.68;;;20.90;96.70;;;;;;5053306;28;20511;-60
2021/07/12 01:57:11;;;;;;;12.02;7.13;;;20.90;96.70;;;;;;5052807;28;20112;-61
2021/07/12 02:00:11;;;;;;;11.98;7.20;;;20.90;96.70;;;;;;5053381;28;20041;-61
2021/07/12 02:02:41;;;;;;;10.32;6.90;;;20.90;96.70;;;;;;5046705;28;20032;-60
2021/07/12 02:05:15;;;;;;;11.05;7.88;;;20.80;96.80;;;;;;5052944;28;20048;-60
2021/07/12 02:07:43;;;;;;;8.27;7.47;;;20.70;96.80;;;;;;5052830;28;20507;-61
2021/07/12 02:10:10;;;;;;;8.70;7.78;;;20.70;96.90;;;;;;5050576;28;20033;-61
2021/07/12 02:12:37;;;;;;;11.00;7.68;;;20.70;97.00;;;;;;5052759;28;20059;-60
2021/07/12 02:15:05;;;;;;;14.65;7.55;;;20.70;97.10;;;;;;5052420;28;20112;-59
2021/07/12 02:17:32;;;;;;;12.10;6.95;;;20.70;97.10;;;;;;5052382;28;20485;-60
2021/07/12 02:20:04;;;;;;;10.48;7.65;;;20.70;97.20;;;;;;5052928;28;20534;-60
2021/07/12 02:22:34;;;;;;;13.65;7.88;;;20.70;97.20;;;;;;5049582;28;20067;-61
2021/07/12 02:25:01;;;;;;;11.13;7.97;;;20.70;97.20;;;;;;5052518;28;20101;-60
2021/07/12 02:27:28;;;;;;;9.77;8.15;;;20.60;97.20;;;;;;5052420;28;20051;-60
2021/07/12 02:29:54;;;;;;;11.13;7.68;;;20.60;97.00;;;;;;5053072;28;20044;-60
2021/07/12 02:32:20;;;;;;;12.48;8.32;;;20.60;97.00;;;;;;5053090;28;20634;-60
2021/07/12 02:34:49;;;;;;;10.07;7.00;;;20.50;97.10;;;;;;5052941;28;20516;-60
2021/07/12 02:37:15;;;;;;;10.02;8.30;;;20.40;97.50;;;;;;5053236;28;20684;-60
2021/07/12 02:39:41;;;;;;;9.35;8.02;;;20.40;97.80;;;;;;5047308;28;20048;-60
2021/07/12 02:42:11;;;;;;;9.38;7.97;;;20.30;97.80;;;;;;5046720;28;20116;-59
2021/07/12 02:44:38;;;;;;;9.68;6.97;;;20.40;97.80;;;;;;5052864;28;20033;-60
2021/07/12 02:47:04;;;;;;;12.45;7.55;;;20.40;97.80;;;;;;5051030;28;20045;-61
2021/07/12 02:49:29;;;;;;;10.25;7.57;;;20.40;97.70;;;;;;5052663;28;20401;-60
2021/07/12 02:52:02;;;;;;;9.48;7.22;;;20.40;97.70;;;;;;5038788;28;20040;-61
2021/07/12 02:54:33;;;;;;;8.85;7.93;;;20.30;97.80;;;;;;5052945;28;20036;-63
2021/07/12 02:56:59;;;;;;;8.25;7.38;;;20.30;97.80;;;;;;5052353;28;20028;-61
2021/07/12 02:59:24;;;;;;;9.10;6.90;;;20.30;97.80;;;;;;5052329;28;20118;-61
2021/07/12 03:01:50;;;;;;;12.13;8.13;;;20.30;97.70;;;;;;5052255;28;20021;-62
2021/07/12 03:04:16;;;;;;;11.27;7.82;;;20.30;97.80;;;;;;5051343;28;20032;-60
2021/07/12 03:06:46;;;;;;;10.85;7.57;;;20.30;97.70;;;;;;5052198;28;20029;-60
2021/07/12 03:09:16;;;;;;;10.15;7.60;;;20.30;97.60;;;;;;5052146;28;20039;-61
2021/07/12 03:11:59;;;;;;;11.10;7.32;;;20.20;97.70;;;;;;5052166;28;20032;-60
2021/07/12 03:14:55;;;;;;;10.38;8.18;;;20.20;97.80;;;;;;5052082;28;20090;-61
2021/07/12 03:17:22;;;;;;;9.38;7.88;;;20.20;97.80;;;;;;5052144;28;20059;-61
2021/07/12 03:19:52;;;;;;;13.18;7.68;;;20.20;97.90;;;;;;5052220;28;20037;-61
2021/07/12 03:22:18;;;;;;;9.52;7.40;;;20.20;97.90;;;;;;5048545;28;20033;-61
2021/07/12 03:24:45;;;;;;;13.32;9.40;;;20.10;97.90;;;;;;5034876;28;20072;-59
2021/07/12 03:27:18;;;;;;;13.05;9.80;;;20.20;97.90;;;;;;5051691;28;20029;-62
2021/07/12 03:29:45;;;;;;;14.93;11.65;;;20.20;97.80;;;;;;5051812;28;20037;-59
2021/07/12 03:32:12;;;;;;;13.05;10.07;;;20.20;97.70;;;;;;5052199;28;20065;-59
2021/07/12 03:34:38;;;;;;;12.52;11.20;;;20.20;97.70;;;;;;5051597;28;20112;-60
2021/07/12 03:37:04;;;;;;;14.85;9.75;;;20.20;97.70;;;;;;5051257;28;20041;-60
2021/07/12 03:39:30;;;;;;;15.93;10.27;;;20.20;97.80;;;;;;5043035;28;20025;-61
2021/07/12 03:41:58;;;;;;;13.80;11.23;;;20.10;97.80;;;;;;5045611;28;20104;-61
2021/07/12 03:44:24;;;;;;;22.75;16.58;;;20.20;97.70;;;;;;5051767;28;20029;-60
2021/07/12 03:46:50;;;;;;;56.95;39.30;;;20.20;97.60;;;;;;5051387;28;20612;-61
2021/07/12 03:49:18;;;;;;;34.88;25.67;;;20.20;97.70;;;;;;5051788;28;20032;-61
2021/07/12 03:51:50;;;;;;;27.05;17.80;;;20.20;97.60;;;;;;5051999;28;20116;-61
2021/07/12 03:54:16;;;;;;;23.83;14.70;;;20.20;97.60;;;;;;5051766;28;20021;-60
2021/07/12 03:56:41;;;;;;;23.02;15.73;;;20.20;97.60;;;;;;5050797;28;20025;-60
2021/07/12 03:59:07;;;;;;;21.50;15.50;;;20.10;97.60;;;;;;5051606;28;20052;-61
2021/07/12 04:01:33;;;;;;;18.75;15.30;;;20.10;97.80;;;;;;5050258;28;20061;-60
2021/07/12 04:03:58;;;;;;;22.15;15.75;;;20.10;97.80;;;;;;5051969;28;20031;-60
2021/07/12 04:06:24;;;;;;;19.20;15.07;;;20.20;97.80;;;;;;5051664;28;20095;-61
2021/07/12 04:08:50;;;;;;;18.77;12.27;;;20.30;97.70;;;;;;5051536;28;20037;-60
2021/07/12 04:11:17;;;;;;;37.08;22.17;;;20.30;97.60;;;;;;5051233;28;20032;-60
2021/07/12 04:13:43;;;;;;;35.65;23.15;;;20.30;97.60;;;;;;5051792;28;20057;-59
2021/07/12 04:16:09;;;;;;;39.08;21.38;;;20.30;97.50;;;;;;5054601;28;20060;-59
2021/07/12 04:18:35;;;;;;;24.30;14.75;;;20.40;97.40;;;;;;5055220;28;20029;-59
2021/07/12 04:21:01;;;;;;;21.95;15.88;;;20.40;97.10;;;;;;5051982;28;20037;-61
2021/07/12 04:23:27;;;;;;;24.08;15.40;;;20.40;97.00;;;;;;5045291;28;20037;-61
2021/07/12 04:25:52;;;;;;;18.23;15.75;;;20.50;97.00;;;;;;5054909;28;20562;-61
2021/07/12 04:28:18;;;;;;;25.42;16.90;;;20.50;96.90;;;;;;5055436;28;20086;-60
2021/07/12 04:30:44;;;;;;;18.38;13.75;;;20.50;96.80;;;;;;5054704;28;20104;-60
2021/07/12 04:33:09;;;;;;;20.42;12.07;;;20.60;96.70;;;;;;5053873;28;20124;-59
2021/07/12 04:35:35;;;;;;;15.82;10.13;;;20.60;96.60;;;;;;5055034;28;20068;-61
2021/07/12 04:38:01;;;;;;;15.77;10.00;;;20.50;96.70;;;;;;5055076;28;20025;-60
2021/07/12 04:40:27;;;;;;;17.08;10.88;;;20.50;96.80;;;;;;5063406;28;20040;-61
2021/07/12 04:42:52;;;;;;;19.35;10.13;;;20.60;96.70;;;;;;5054911;28;20020;-61
2021/07/12 04:45:18;;;;;;;17.52;10.65;;;20.60;96.70;;;;;;5054544;28;20535;-61
2021/07/12 04:47:44;;;;;;;18.42;11.23;;;20.70;96.00;;;;;;5054925;28;20088;-60
2021/07/12 04:50:10;;;;;;;18.73;11.65;;;20.70;96.20;;;;;;5054914;28;20029;-60
2021/07/12 04:52:36;;;;;;;18.70;10.75;;;20.70;96.40;;;;;;5055156;28;20033;-60
2021/07/12 04:55:06;;;;;;;16.40;10.07;;;20.70;96.00;;;;;;5054831;28;20079;-59
2021/07/12 04:57:32;;;;;;;16.85;11.02;;;20.50;96.20;;;;;;5054282;28;20025;-60
2021/07/12 04:59:58;;;;;;;15.98;11.90;;;20.50;96.50;;;;;;5055250;28;20654;-60
2021/07/12 05:02:23;;;;;;;17.15;11.73;;;20.40;96.60;;;;;;5054720;28;20056;-60
2021/07/12 05:04:49;;;;;;;16.27;12.60;;;20.40;96.80;;;;;;5054313;28;20033;-60
2021/07/12 05:07:14;;;;;;;16.88;11.82;;;20.50;96.80;;;;;;5054293;28;20048;-60
2021/07/12 05:09:40;;;;;;;18.25;11.73;;;20.60;96.30;;;;;;5054352;28;20037;-60
2021/07/12 05:12:10;;;;;;;15.88;12.10;;;20.50;96.50;;;;;;5054160;28;20680;-60
2021/07/12 05:14:42;;;;;;;14.35;12.82;;;20.50;96.50;;;;;;5055070;28;20033;-61
2021/07/12 05:17:10;;;;;;;24.63;14.60;;;20.70;96.60;;;;;;5054144;28;20031;-60
2021/07/12 05:19:36;;;;;;;23.55;13.25;;;20.70;96.20;;;;;;5054930;28;20052;-61
2021/07/12 05:22:01;;;;;;;15.80;13.20;;;20.70;96.30;;;;;;5044596;28;20068;-61
2021/07/12 05:24:27;;;;;;;15.55;12.27;;;20.80;96.20;;;;;;5054165;28;20033;-58
2021/07/12 05:26:53;;;;;;;16.80;12.75;;;20.70;95.90;;;;;;5055794;28;20029;-62
2021/07/12 05:29:18;;;;;;;15.10;12.18;;;20.70;96.10;;;;;;5054053;28;20091;-62
2021/07/12 05:31:46;;;;;;;14.50;11.63;;;20.70;96.20;;;;;;5054699;28;20040;-61
2021/07/12 05:34:12;;;;;;;19.05;14.93;;;20.70;95.90;;;;;;5053464;28;20037;-61
2021/07/12 05:36:37;;;;;;;20.40;17.63;;;20.70;95.90;;;;;;5053760;28;20025;-61
2021/07/12 05:39:04;;;;;;;14.93;11.60;;;20.70;96.00;;;;;;5048717;28;20385;-61
2021/07/12 05:41:29;;;;;;;11.73;10.32;;;20.70;96.10;;;;;;5048949;28;20037;-59
2021/07/12 05:43:55;;;;;;;12.95;11.00;;;20.90;95.80;;;;;;5043939;28;20562;-61
2021/07/12 05:46:21;;;;;;;15.07;11.70;;;21.00;95.50;;;;;;5054129;28;20056;-61
2021/07/12 05:48:46;;;;;;;11.82;10.48;;;21.10;95.30;;;;;;5053688;28;20036;-61
2021/07/12 05:51:12;;;;;;;12.60;9.75;;;21.20;94.90;;;;;;5053964;28;20029;-60
2021/07/12 05:53:37;;;;;;;12.35;9.77;;;21.30;94.80;;;;;;5054108;28;20029;-60
2021/07/12 05:56:03;;;;;;;12.88;10.20;;;21.30;94.70;;;;;;5053745;28;20365;-61
2021/07/12 05:58:29;;;;;;;14.35;12.80;;;21.30;94.80;;;;;;5053811;28;20025;-60
2021/07/12 06:00:55;;;;;;;14.55;11.63;;;21.10;95.00;;;;;;5053926;28;20439;-61
2021/07/12 06:03:21;;;;;;;13.65;10.63;;;21.00;95.20;;;;;;5053736;28;20044;-61
2021/07/12 06:05:47;;;;;;;15.07;10.73;;;21.30;95.10;;;;;;5053868;28;20104;-60
2021/07/12 06:08:13;;;;;;;13.25;11.63;;;21.40;94.90;;;;;;5053558;28;20511;-60
2021/07/12 06:10:38;;;;;;;13.35;11.95;;;21.40;94.60;;;;;;5053060;28;20484;-60
2021/07/12 06:13:04;;;;;;;12.98;10.02;;;21.50;94.50;;;;;;5054029;28;20032;-60
2021/07/12 06:15:30;;;;;;;11.70;10.05;;;21.40;94.70;;;;;;5053601;28;20033;-61
2021/07/12 06:17:55;;;;;;;13.45;10.70;;;21.40;95.00;;;;;;5053966;28;20045;-61
2021/07/12 06:20:21;;;;;;;14.07;10.32;;;21.40;95.10;;;;;;5053634;28;20064;-61
2021/07/12 06:22:48;;;;;;;11.52;9.50;;;21.30;95.10;;;;;;5034940;28;20048;-61
2021/07/12 06:25:15;;;;;;;14.05;9.50;;;21.30;95.20;;;;;;5047168;28;20029;-59
2021/07/12 06:27:41;;;;;;;9.88;8.98;;;21.30;95.20;;;;;;5052379;28;20029;-60
2021/07/12 06:30:07;;;;;;;11.27;9.30;;;21.40;95.20;;;;;;5048390;28;20051;-60
2021/07/12 06:32:33;;;;;;;11.85;9.18;;;21.50;95.10;;;;;;5051872;28;20037;-61
2021/07/12 06:34:59;;;;;;;10.95;9.02;;;21.60;95.00;;;;;;5052379;28;20032;-59
2021/07/12 06:37:24;;;;;;;13.32;10.05;;;21.70;94.90;;;;;;5052318;28;20459;-59
2021/07/12 06:39:50;;;;;;;9.75;8.77;;;21.80;94.80;;;;;;5048585;28;20064;-61
2021/07/12 06:42:16;;;;;;;10.13;8.00;;;21.80;94.60;;;;;;5040309;28;20037;-60
2021/07/12 06:44:41;;;;;;;9.68;7.53;;;21.80;94.50;;;;;;5047535;28;20040;-61
2021/07/12 06:47:07;;;;;;;8.45;7.15;;;21.70;94.40;;;;;;5052471;28;20029;-62
2021/07/12 06:49:33;;;;;;;9.48;7.25;;;21.80;94.50;;;;;;5051540;28;20032;-60
2021/07/12 06:51:59;;;;;;;9.95;8.23;;;21.90;94.30;;;;;;5052811;28;20057;-60
2021/07/12 06:54:24;;;;;;;8.93;6.35;;;22.00;94.10;;;;;;5052777;28;20040;-60
2021/07/12 06:56:50;;;;;;;8.50;7.70;;;22.10;94.10;;;;;;5052273;28;20075;-60
2021/07/12 06:59:16;;;;;;;8.25;6.25;;;22.30;93.70;;;;;;5052260;28;20033;-61
2021/07/12 07:01:41;;;;;;;10.65;6.93;;;22.40;93.50;;;;;;5051907;28;20515;-60
2021/07/12 07:04:07;;;;;;;9.15;6.32;;;22.40;93.10;;;;;;5052642;28;20492;-61
2021/07/12 07:06:32;;;;;;;7.43;6.53;;;22.50;93.10;;;;;;5031809;28;20048;-61
2021/07/12 07:08:58;;;;;;;8.15;6.15;;;22.50;92.80;;;;;;5017061;28;20052;-61
2021/07/12 07:11:24;;;;;;;11.90;7.85;;;22.50;92.80;;;;;;5052441;28;20041;-61
2021/07/12 07:13:49;;;;;;;7.85;7.05;;;22.50;92.70;;;;;;5052559;28;20611;-60
2021/07/12 07:16:16;;;;;;;9.35;6.63;;;22.60;92.70;;;;;;5050520;28;20041;-60
2021/07/12 07:18:42;;;;;;;11.57;7.28;;;22.80;92.60;;;;;;5042310;28;20091;-60
2021/07/12 07:21:07;;;;;;;9.77;7.43;;;22.80;92.50;;;;;;5033452;28;20030;-60
2021/07/12 07:23:34;;;;;;;9.25;6.15;;;22.70;92.80;;;;;;5053077;28;20112;-61
2021/07/12 07:26:00;;;;;;;9.63;6.53;;;22.80;92.80;;;;;;5035512;28;20033;-60
2021/07/12 07:28:25;;;;;;;10.00;6.32;;;22.90;92.50;;;;;;5048105;28;20033;-60
2021/07/12 07:30:52;;;;;;;9.40;7.63;;;23.00;92.30;;;;;;5053007;28;20515;-60
2021/07/12 07:33:18;;;;;;;12.80;7.28;;;23.10;92.30;;;;;;5038803;28;20539;-60
2021/07/12 07:35:46;;;;;;;11.02;7.18;;;23.00;92.40;;;;;;5048598;28;20033;-61
2021/07/12 07:38:12;;;;;;;11.73;9.10;;;23.00;92.60;;;;;;5051959;28;20090;-60
2021/07/12 07:40:37;;;;;;;10.77;9.57;;;22.80;92.60;;;;;;5046259;28;20461;-62
2021/07/12 07:43:04;;;;;;;9.32;8.52;;;22.70;92.60;;;;;;5045892;28;20134;-62
2021/07/12 07:45:32;;;;;;;11.75;8.68;;;22.70;92.60;;;;;;5035988;28;20042;-59
2021/07/12 07:47:57;;;;;;;12.95;9.30;;;22.80;92.50;;;;;;5052609;28;20122;-61
2021/07/12 07:50:23;;;;;;;9.13;8.15;;;22.80;92.30;;;;;;5054834;28;20088;-61
2021/07/12 07:52:50;;;;;;;11.38;8.15;;;23.00;92.20;;;;;;5053332;28;20045;-60
2021/07/12 07:55:19;;;;;;;8.80;7.90;;;23.20;92.00;;;;;;5047528;28;20029;-61
2021/07/12 07:57:46;;;;;;;11.15;8.10;;;23.20;91.40;;;;;;5056269;28;20021;-62
2021/07/12 08:00:17;;;;;;;12.27;7.75;;;23.10;91.40;;;;;;5025516;28;20033;-61
2021/07/12 08:02:43;;;;;;;12.07;8.23;;;23.10;91.40;;;;;;5049770;28;20037;-61
2021/07/12 08:05:10;;;;;;;11.25;8.88;;;23.20;91.50;;;;;;5044593;28;20034;-61
2021/07/12 08:07:36;;;;;;;10.20;9.13;;;23.40;91.30;;;;;;5026194;28;20045;-61
2021/07/12 08:10:04;;;;;;;12.68;9.60;;;23.60;91.00;;;;;;5045579;28;20457;-61
2021/07/12 08:12:29;;;;;;;10.90;9.73;;;23.70;90.60;;;;;;5044318;28;20025;-60
2021/07/12 08:14:55;;;;;;;10.73;9.77;;;23.80;90.10;;;;;;5042002;28;20111;-61
2021/07/12 08:17:20;;;;;;;10.88;9.88;;;24.00;90.20;;;;;;5037655;28;20029;-60
2021/07/12 08:19:46;;;;;;;14.10;12.88;;;24.00;90.10;;;;;;5055792;28;20032;-61
2021/07/12 08:22:12;;;;;;;16.05;14.75;;;24.10;89.90;;;;;;5045011;28;20040;-62
2021/07/12 08:24:37;;;;;;;17.40;15.77;;;24.30;89.10;;;;;;5054633;28;20561;-60
2021/07/12 08:27:03;;;;;;;18.08;16.48;;;24.30;88.50;;;;;;5055496;28;20033;-60
2021/07/12 08:29:30;;;;;;;16.30;14.85;;;24.20;87.90;;;;;;5044528;28;20524;-61
2021/07/12 08:31:55;;;;;;;18.10;16.17;;;24.20;88.80;;;;;;5050218;28;20044;-61
2021/07/12 08:34:21;;;;;;;14.65;13.45;;;24.10;88.80;;;;;;5032317;28;20029;-59
2021/07/12 08:36:47;;;;;;;13.52;12.27;;;24.20;88.50;;;;;;5055121;28;20110;-61
2021/07/12 08:39:12;;;;;;;15.80;13.23;;;24.30;88.20;;;;;;5055507;28;20392;-60
2021/07/12 08:41:38;;;;;;;11.90;10.80;;;24.50;87.80;;;;;;5055644;28;20395;-61
2021/07/12 08:44:06;;;;;;;11.77;10.77;;;24.40;87.70;;;;;;5057046;28;20468;-61
2021/07/12 08:46:32;;;;;;;10.80;9.82;;;24.40;88.00;;;;;;5054821;28;20060;-59
2021/07/12 08:48:57;;;;;;;10.52;9.55;;;24.50;88.00;;;;;;5055196;28;20057;-59
2021/07/12 08:51:23;;;;;;;9.68;8.77;;;24.40;87.40;;;;;;5056265;28;20029;-61
2021/07/12 08:53:49;;;;;;;10.88;8.65;;;24.20;88.20;;;;;;5056130;28;20634;-61
2021/07/12 08:56:15;;;;;;;9.55;7.68;;;24.20;88.00;;;;;;5054903;28;20107;-60
2021/07/12 08:58:40;;;;;;;10.05;8.60;;;24.00;88.50;;;;;;5055050;28;20106;-62
2021/07/12 09:01:09;;;;;;;10.40;9.50;;;24.10;88.90;;;;;;5045759;28;20518;-60
2021/07/12 09:03:36;;;;;;;10.35;9.45;;;24.20;87.40;;;;;;5024819;28;20060;-62
2021/07/12 09:06:16;;;;;;;11.48;10.30;;;24.30;87.20;;;;;;5036172;28;20037;-60
2021/07/12 09:09:04;;;;;;;11.23;10.32;;;24.60;86.70;;;;;;5035490;28;20037;-59
2021/07/12 09:11:34;;;;;;;9.93;9.02;;;24.70;86.60;;;;;;5038092;28;20033;-61
2021/07/12 09:14:05;;;;;;;10.20;9.30;;;24.80;85.60;;;;;;5039745;28;20044;-59
2021/07/12 09:16:49;;;;;;;13.30;9.68;;;24.90;85.30;;;;;;5044852;28;20038;-61
2021/07/12 09:19:21;;;;;;;17.08;14.70;;;25.00;85.60;;;;;;5035483;28;20498;-61
2021/07/12 09:21:54;;;;;;;11.63;10.52;;;25.10;85.60;;;;;;5035298;28;20067;-61
2021/07/12 09:24:38;;;;;;;10.13;9.07;;;25.30;84.90;;;;;;5036161;28;20072;-61
2021/07/12 09:27:11;;;;;;;9.63;8.77;;;25.30;83.40;;;;;;5034551;28;20319;-61
2021/07/12 09:29:51;;;;;;;8.70;7.93;;;25.30;83.80;;;;;;5025840;28;20096;-60
2021/07/12 09:32:19;;;;;;;8.73;8.02;;;25.30;84.10;;;;;;5054802;28;20279;-60
2021/07/12 09:34:46;;;;;;;8.73;8.02;;;25.30;84.20;;;;;;5052005;28;20033;-60
2021/07/12 09:37:16;;;;;;;9.45;7.80;;;25.40;84.20;;;;;;5053585;28;20040;-61
2021/07/12 09:39:47;;;;;;;9.07;8.27;;;25.70;83.80;;;;;;5044432;28;20068;-60
2021/07/12 09:42:23;;;;;;;9.70;8.93;;;25.80;83.20;;;;;;5047652;28;20021;-60
2021/07/12 09:44:54;;;;;;;9.82;8.82;;;26.00;82.30;;;;;;5063296;28;20151;-60
2021/07/12 09:47:23;;;;;;;12.15;9.60;;;26.10;81.90;;;;;;5042486;28;20037;-60
2021/07/12 09:49:50;;;;;;;9.05;8.27;;;26.10;81.90;;;;;;5039613;28;20061;-60
2021/07/12 09:52:21;;;;;;;11.02;8.77;;;25.80;81.40;;;;;;5050655;28;20055;-60
2021/07/12 09:54:48;;;;;;;8.10;7.32;;;25.70;81.40;;;;;;5053182;28;20033;-60
2021/07/12 09:57:16;;;;;;;10.35;7.75;;;25.70;80.40;;;;;;5053340;28;20146;-62
2021/07/12 10:00:03;;;;;;;10.43;7.70;;;25.60;81.50;;;;;;5053714;28;20120;-57
2021/07/12 10:02:33;;;;;;;7.90;7.05;;;25.70;80.60;;;;;;5050040;28;20037;-58
2021/07/12 10:05:13;;;;;;;10.30;7.07;;;25.60;80.50;;;;;;5052333;28;20602;-58
2021/07/12 10:07:39;;;;;;;7.03;6.43;;;25.80;80.40;;;;;;5049943;28;20029;-60
2021/07/12 10:10:13;;;;;;;7.30;6.60;;;25.90;80.20;;;;;;5033260;28;20041;-59
2021/07/12 10:12:40;;;;;;;7.55;6.75;;;26.00;79.50;;;;;;5049911;28;20076;-58
2021/07/12 10:15:08;;;;;;;10.85;6.47;;;26.20;79.10;;;;;;5046216;28;20029;-58
2021/07/12 10:17:33;;;;;;;6.13;5.63;;;26.30;79.70;;;;;;5052291;28;20626;-59
2021/07/12 10:19:59;;;;;;;6.20;5.63;;;26.50;78.30;;;;;;5053596;28;20072;-59
2021/07/12 10:22:32;;;;;;;6.78;6.07;;;26.70;77.40;;;;;;5041632;28;20491;-53
2021/07/12 10:25:09;;;;;;;6.40;5.80;;;26.80;77.30;;;;;;5051213;28;20039;-57
2021/07/12 10:27:45;;;;;;;6.65;5.93;;;26.70;76.00;;;;;;5052882;28;20032;-56
2021/07/12 10:30:33;;;;;;;7.80;6.32;;;26.60;77.00;;;;;;5053513;28;20500;-58
2021/07/12 10:33:02;;;;;;;6.53;5.82;;;26.60;77.40;;;;;;5053044;28;20033;-53
2021/07/12 10:35:49;;;;;;;6.20;5.60;;;26.60;77.30;;;;;;5052511;28;20126;-56
2021/07/12 10:38:17;;;;;;;5.85;5.10;;;26.70;76.60;;;;;;5052834;28;20184;-59
2021/07/12 10:40:47;;;;;;;6.18;5.30;;;27.00;75.40;;;;;;5042206;28;20029;-59
2021/07/12 10:43:32;;;;;;;6.65;4.70;;;27.00;74.50;;;;;;5051693;28;20037;-55
2021/07/12 10:45:58;;;;;;;4.65;4.25;;;27.10;74.10;;;;;;5044031;28;20039;-60
2021/07/12 10:48:36;;;;;;;5.68;4.78;;;27.10;73.90;;;;;;5052676;28;20037;-54
2021/07/12 10:51:25;;;;;;;5.25;4.75;;;27.00;74.40;;;;;;5052683;28;20033;-54
2021/07/12 10:54:10;;;;;;;6.30;4.90;;;26.70;75.20;;;;;;5042315;28;20025;-56
2021/07/12 10:56:48;;;;;;;5.25;4.75;;;26.70;75.50;;;;;;5050080;28;20029;-60
2021/07/12 10:59:34;;;;;;;6.57;4.80;;;26.80;75.30;;;;;;5047213;28;20025;-54
2021/07/12 11:02:02;;;;;;;8.63;5.75;;;27.00;74.80;;;;;;5051944;28;20020;-56
2021/07/12 11:04:32;;;;;;;5.30;4.80;;;27.00;74.40;;;;;;5053462;28;20563;-57
2021/07/12 11:06:59;;;;;;;5.90;4.90;;;26.90;75.00;;;;;;5051778;28;20764;-58
2021/07/12 11:10:03;;;;;;;4.70;4.30;;;26.80;74.60;;;;;;5052666;28;20036;-53
2021/07/12 11:12:36;;;;;;;5.63;4.25;;;26.80;73.20;;;;;;5029903;28;20121;-59
2021/07/12 11:15:12;;;;;;;5.07;4.57;;;26.80;73.40;;;;;;5013111;28;20080;-59
2021/07/12 11:17:56;;;;;;;4.97;4.40;;;26.70;75.20;;;;;;5041583;28;20037;-57
2021/07/12 11:20:43;;;;;;;5.95;4.78;;;26.60;75.60;;;;;;5052162;28;20029;-59
2021/07/12 11:23:44;;;;;;;8.07;4.72;;;26.50;75.90;;;;;;5039167;28;20036;-59
2021/07/12 11:26:27;;;;;;;5.90;5.18;;;26.60;76.00;;;;;;5050777;28;20338;-57
2021/07/12 11:28:58;;;;;;;5.40;4.90;;;26.50;76.50;;;;;;5052113;28;20053;-59
2021/07/12 11:31:54;;;;;;;5.10;4.55;;;26.30;75.90;;;;;;5051621;28;20072;-53
2021/07/12 11:34:32;;;;;;;4.70;4.30;;;26.30;76.00;;;;;;5051881;28;20037;-55
2021/07/12 11:37:08;;;;;;;5.63;4.80;;;26.40;76.30;;;;;;5051560;28;20083;-59
2021/07/12 11:39:37;;;;;;;4.90;4.50;;;26.40;76.30;;;;;;5043399;28;20029;-56
2021/07/12 11:42:26;;;;;;;4.80;4.35;;;26.40;75.70;;;;;;5046146;28;20091;-55
2021/07/12 11:45:00;;;;;;;5.10;4.60;;;26.40;75.90;;;;;;5051917;28;20052;-56
2021/07/12 11:47:27;;;;;;;5.70;5.10;;;26.50;75.70;;;;;;5051841;28;20025;-60
2021/07/12 11:49:56;;;;;;;5.50;4.90;;;26.60;75.70;;;;;;5052133;28;20013;-55
2021/07/12 11:52:22;;;;;;;5.70;5.20;;;26.80;75.30;;;;;;5052530;28;20082;-56
2021/07/12 11:54:55;;;;;;;9.75;5.47;;;26.90;75.40;;;;;;5053742;28;20021;-57
2021/07/12 11:57:21;;;;;;;6.15;4.88;;;27.00;75.20;;;;;;5053830;28;20028;-52
2021/07/12 11:59:47;;;;;;;5.47;4.97;;;27.10;74.70;;;;;;5053514;28;20033;-55
2021/07/12 12:02:15;;;;;;;8.02;5.20;;;27.20;74.40;;;;;;5061862;28;20545;-60
2021/07/12 12:04:55;;;;;;;11.27;6.00;;;27.40;74.10;;;;;;5067496;28;20009;-54
2021/07/12 12:07:59;;;;;;;8.30;7.40;;;27.60;73.60;;;;;;5053437;28;20080;-56
2021/07/12 12:10:26;;;;;;;5.65;5.15;;;27.80;72.50;;;;;;4991254;28;20118;-52
2021/07/12 12:12:56;;;;;;;6.47;5.45;;;27.70;72.70;;;;;;4964577;28;20701;-56
2021/07/12 12:15:25;;;;;;;6.18;5.57;;;27.60;72.40;;;;;;5018014;28;20041;-56
2021/07/12 12:18:05;;;;;;;7.20;5.15;;;27.40;73.30;;;;;;5052208;28;20029;-56
2021/07/12 12:20:35;;;;;;;6.60;5.65;;;27.40;73.70;;;;;;5052159;28;20083;-59
2021/07/12 12:23:03;;;;;;;5.97;5.38;;;27.50;74.20;;;;;;5038220;28;20033;-57
2021/07/12 12:25:32;;;;;;;6.57;5.90;;;27.50;74.40;;;;;;5050281;28;20447;-58
2021/07/12 12:27:58;;;;;;;6.63;6.03;;;27.70;73.60;;;;;;5051795;28;20500;-57
2021/07/12 12:30:24;;;;;;;9.75;6.38;;;27.80;73.20;;;;;;5051776;28;20124;-56
2021/07/12 12:32:57;;;;;;;5.95;5.35;;;27.90;73.10;;;;;;5051872;28;20029;-56
2021/07/12 12:35:24;;;;;;;;;;;28.00;72.70;;;;;;5044871;28;20056;-57
2021/07/12 12:37:52;;;;;;;5.50;5.10;;;27.90;70.90;;;;;;5044882;28;20357;-55
2021/07/12 12:40:21;;;;;;;7.70;5.72;;;27.80;71.50;;;;;;5039326;28;20041;-52
2021/07/12 12:42:48;;;;;;;8.98;5.50;;;28.00;71.40;;;;;;5054040;28;20017;-57
2021/07/12 12:45:26;;;;;;;6.22;5.00;;;28.10;71.30;;;;;;5059542;28;20041;-54
2021/07/12 12:47:52;;;;;;;4.95;4.55;;;28.20;71.00;;;;;;5055212;28;20484;-57
2021/07/12 12:50:19;;;;;;;7.75;5.47;;;28.10;70.10;;;;;;5055167;28;20035;-55